Time;durP1;ratioP1;P1;durP2;ratioP2;P2;SDS_P1;SDS_P2;PMS_P1;PMS_P2;Temp;Humidity;BMP_temperature;BMP_pressure;BME280_temperature;BME280_humidity;BME280_pressure;Samples;Min_cycle;Max_cycle;Signal;HPM_P1;HPM_P2
2022/04/17 00:00:25;;;;;;;4.95;3.50;;;3.50;99.90;;;;;;5040093;28;20022;-83
2022/04/17 00:02:51;;;;;;;5.53;3.90;;;3.50;99.90;;;;;;5038556;28;20021;-82
2022/04/17 00:05:17;;;;;;;5.97;3.70;;;3.40;99.90;;;;;;5039936;28;20021;-83
2022/04/17 00:07:46;;;;;;;5.60;3.67;;;3.30;99.90;;;;;;5038318;28;20531;-82
2022/04/17 00:10:11;;;;;;;5.90;3.88;;;3.20;99.90;;;;;;5041593;28;20040;-83
2022/04/17 00:12:40;;;;;;;6.28;4.30;;;3.10;99.90;;;;;;5040512;28;20021;-82
2022/04/17 00:15:07;;;;;;;6.13;3.65;;;3.10;1.00;;;;;;5040480;28;20072;-82
2022/04/17 00:17:33;;;;;;;5.40;4.18;;;3.10;99.90;;;;;;5039853;28;20117;-82
2022/04/17 00:19:59;;;;;;;5.75;3.97;;;3.10;1.00;;;;;;5042249;28;20053;-82
2022/04/17 00:22:25;;;;;;;7.30;4.32;;;3.30;99.90;;;;;;5041902;28;20130;-82
2022/04/17 00:24:52;;;;;;;5.57;4.15;;;3.20;99.90;;;;;;5040873;28;20029;-82
2022/04/17 00:27:18;;;;;;;6.30;4.43;;;3.30;99.90;;;;;;5041025;28;20112;-82
2022/04/17 00:29:46;;;;;;;6.57;4.35;;;3.30;99.90;;;;;;5042376;28;20063;-82
2022/04/17 00:32:12;;;;;;;7.03;4.20;;;3.30;99.90;;;;;;5042955;28;20026;-82
2022/04/17 00:34:37;;;;;;;5.50;3.63;;;3.20;99.90;;;;;;5042896;28;20060;-82
2022/04/17 00:37:04;;;;;;;5.57;4.13;;;3.20;99.90;;;;;;5043052;28;20511;-82
2022/04/17 00:39:30;;;;;;;7.05;3.85;;;3.50;99.90;;;;;;5044642;28;20048;-82
2022/04/17 00:41:56;;;;;;;5.72;3.97;;;3.90;99.90;;;;;;5044155;28;20025;-81
2022/04/17 00:44:22;;;;;;;6.60;3.67;;;4.00;99.90;;;;;;5042579;28;20130;-81
2022/04/17 00:46:48;;;;;;;6.40;4.28;;;3.60;99.90;;;;;;5043141;28;20524;-82
2022/04/17 00:49:14;;;;;;;5.28;4.20;;;3.40;99.90;;;;;;5048515;28;20033;-82
2022/04/17 00:51:42;;;;;;;6.85;4.20;;;3.40;99.90;;;;;;5044026;28;20045;-82
2022/04/17 00:54:12;;;;;;;4.93;4.07;;;3.30;99.90;;;;;;5043815;28;20033;-83
2022/04/17 00:56:38;;;;;;;7.53;4.13;;;3.20;99.90;;;;;;5042700;28;20048;-83
2022/04/17 00:59:06;;;;;;;6.05;4.50;;;3.50;99.90;;;;;;5044655;28;20033;-83
2022/04/17 01:01:34;;;;;;;7.00;4.32;;;3.60;99.90;;;;;;5043763;28;20052;-82
2022/04/17 01:04:01;;;;;;;5.88;4.00;;;3.50;99.90;;;;;;5044742;28;20604;-83
2022/04/17 01:06:27;;;;;;;5.70;3.90;;;3.50;99.90;;;;;;5047193;28;20378;-82
2022/04/17 01:08:53;;;;;;;5.65;3.70;;;3.70;99.90;;;;;;5046686;28;20033;-82
2022/04/17 01:11:19;;;;;;;5.93;4.20;;;3.70;99.90;;;;;;5044554;28;20025;-82
2022/04/17 01:13:45;;;;;;;5.63;4.15;;;3.60;99.90;;;;;;5041586;28;20393;-82
2022/04/17 01:16:11;;;;;;;7.53;4.15;;;3.80;99.90;;;;;;5040441;28;20061;-82
2022/04/17 01:18:55;;;;;;;7.15;4.20;;;4.00;99.90;;;;;;5043747;28;20453;-82
2022/04/17 01:21:22;;;;;;;7.22;4.30;;;3.90;99.90;;;;;;5030136;28;20100;-82
2022/04/17 01:29:18;;;;;;;7.78;4.43;;;4.00;99.90;;;;;;5035719;28;20070;-82
2022/04/17 01:31:44;;;;;;;6.75;4.38;;;4.00;99.90;;;;;;5043638;28;20037;-82
2022/04/17 01:34:10;;;;;;;7.13;4.40;;;3.90;99.90;;;;;;5042797;28;20559;-82
2022/04/17 01:36:35;;;;;;;4.93;3.92;;;3.80;99.90;;;;;;5041023;28;20052;-82
2022/04/17 01:39:01;;;;;;;7.28;4.53;;;3.90;99.90;;;;;;5040151;28;20040;-82
2022/04/17 01:41:27;;;;;;;5.20;3.88;;;3.90;99.90;;;;;;5034692;28;20041;-82
2022/04/17 01:43:52;;;;;;;6.20;4.43;;;3.90;99.90;;;;;;5034686;28;20060;-83
2022/04/17 01:46:18;;;;;;;7.07;4.43;;;4.00;99.90;;;;;;5036533;28;20104;-82
2022/04/17 01:48:43;;;;;;;13.98;4.40;;;3.80;99.90;;;;;;5034758;28;20048;-83
2022/04/17 01:51:09;;;;;;;6.78;5.00;;;3.80;99.90;;;;;;5032957;28;20400;-83
2022/04/17 01:53:34;;;;;;;8.73;4.22;;;3.90;99.90;;;;;;5034613;28;20035;-83
2022/04/17 01:56:00;;;;;;;7.18;4.68;;;3.80;99.90;;;;;;5034649;28;20029;-83
2022/04/17 01:58:25;;;;;;;8.45;4.78;;;3.70;99.90;;;;;;5034468;28;20040;-82
2022/04/17 02:00:51;;;;;;;7.05;4.55;;;3.60;99.90;;;;;;5034396;28;20036;-83
2022/04/17 02:03:16;;;;;;;7.75;5.05;;;3.50;99.90;;;;;;5033969;28;20025;-82
2022/04/17 02:05:42;;;;;;;8.27;4.93;;;3.80;99.90;;;;;;5033743;28;20370;-83
2022/04/17 02:08:07;;;;;;;9.48;4.65;;;3.60;99.90;;;;;;5033752;28;20026;-83
2022/04/17 02:10:34;;;;;;;8.82;4.65;;;3.50;99.90;;;;;;5033933;28;20029;-82
2022/04/17 02:13:00;;;;;;;7.43;4.85;;;3.40;99.90;;;;;;5033844;28;20033;-82
2022/04/17 02:15:26;;;;;;;7.10;4.72;;;3.40;99.90;;;;;;5031697;28;20056;-82
2022/04/17 02:17:52;;;;;;;9.00;5.18;;;3.40;99.90;;;;;;5033790;28;20029;-83
2022/04/17 02:20:18;;;;;;;7.03;5.05;;;3.30;99.90;;;;;;5034121;28;20493;-82
2022/04/17 02:22:45;;;;;;;10.05;5.70;;;3.20;99.90;;;;;;5033569;28;20049;-82
2022/04/17 02:25:10;;;;;;;7.13;5.22;;;3.20;99.90;;;;;;5034025;28;20068;-83
2022/04/17 02:27:36;;;;;;;8.32;4.85;;;3.00;99.90;;;;;;5033613;28;20034;-83
2022/04/17 02:30:05;;;;;;;8.32;5.07;;;3.00;99.90;;;;;;5032656;28;20033;-83
2022/04/17 02:32:31;;;;;;;7.50;5.20;;;3.00;99.90;;;;;;5037580;28;20076;-82
2022/04/17 02:34:57;;;;;;;7.53;5.00;;;2.90;99.90;;;;;;5036643;28;20049;-83
2022/04/17 02:37:22;;;;;;;8.52;5.80;;;2.90;99.90;;;;;;5032971;28;20504;-83
2022/04/17 02:39:48;;;;;;;8.40;5.45;;;2.70;99.90;;;;;;5034165;28;20097;-83
2022/04/17 02:42:14;;;;;;;8.50;5.50;;;2.90;99.90;;;;;;5033738;28;20488;-83
2022/04/17 02:44:53;;;;;;;7.28;4.78;;;2.80;99.90;;;;;;5033549;28;20038;-83
2022/04/17 02:50:03;;;;;;;9.88;5.85;;;2.60;99.90;;;;;;5015015;28;20061;-82
2022/04/17 02:53:24;;;;;;;7.20;5.50;;;2.60;99.90;;;;;;5014542;28;20046;-82
2022/04/17 02:55:50;;;;;;;8.35;5.38;;;2.70;99.90;;;;;;5014211;28;20404;-83
2022/04/17 02:58:15;;;;;;;8.20;5.68;;;2.90;99.90;;;;;;5013569;28;20505;-83
2022/04/17 03:06:11;;;;;;;8.88;5.72;;;2.90;99.90;;;;;;5016203;28;20041;-82
2022/04/17 03:08:41;;;;;;;7.85;5.75;;;2.80;99.90;;;;;;5018310;28;20385;-82
2022/04/17 03:11:07;;;;;;;7.32;5.55;;;2.70;99.90;;;;;;5017690;28;20764;-82
2022/04/17 03:13:33;;;;;;;9.07;6.03;;;2.80;99.90;;;;;;5033369;28;20030;-82
2022/04/17 03:15:59;;;;;;;10.05;5.80;;;2.70;99.90;;;;;;5037263;28;20493;-81
2022/04/17 03:18:24;;;;;;;11.65;6.20;;;2.50;99.90;;;;;;5037099;28;20095;-82
2022/04/17 03:20:50;;;;;;;8.73;5.60;;;2.40;99.90;;;;;;5038426;28;20033;-81
2022/04/17 03:23:16;;;;;;;8.60;5.80;;;2.30;99.90;;;;;;5038401;28;20022;-82
2022/04/17 03:25:42;;;;;;;9.57;5.90;;;2.20;99.90;;;;;;5035020;28;20527;-82
2022/04/17 03:28:08;;;;;;;9.50;6.28;;;2.30;99.90;;;;;;5038335;28;20021;-82
2022/04/17 03:30:33;;;;;;;18.17;7.40;;;2.10;99.90;;;;;;5042444;28;20390;-81
2022/04/17 03:33:00;;;;;;;8.13;5.80;;;2.00;99.90;;;;;;5050128;28;20107;-82
2022/04/17 03:35:26;;;;;;;9.20;6.20;;;2.20;99.90;;;;;;5044190;28;20024;-82
2022/04/17 03:37:57;;;;;;;10.40;7.22;;;2.20;99.90;;;;;;5045004;28;20021;-82
2022/04/17 03:40:22;;;;;;;8.63;6.22;;;2.10;99.90;;;;;;5045027;28;20391;-82
2022/04/17 03:42:48;;;;;;;9.48;6.32;;;2.00;1.00;;;;;;5043542;28;20025;-82
2022/04/17 03:45:20;;;;;;;8.63;6.03;;;2.20;1.00;;;;;;5043594;28;20030;-82
2022/04/17 03:47:45;;;;;;;8.18;6.25;;;2.20;1.00;;;;;;5044620;28;20034;-82
2022/04/17 03:50:32;;;;;;;11.10;5.97;;;2.10;1.00;;;;;;5047113;28;20032;-82
2022/04/17 03:52:58;;;;;;;10.52;6.28;;;2.00;1.00;;;;;;5047268;28;20032;-82
2022/04/17 03:55:24;;;;;;;8.88;6.00;;;2.00;1.00;;;;;;5047759;28;20033;-81
2022/04/17 03:57:50;;;;;;;10.13;6.07;;;1.90;99.90;;;;;;5050658;28;20386;-83
2022/04/17 04:00:16;;;;;;;9.70;6.60;;;1.70;1.00;;;;;;5052226;28;20025;-83
2022/04/17 04:02:43;;;;;;;9.70;6.68;;;1.60;1.00;;;;;;5052322;28;20072;-82
2022/04/17 04:05:10;;;;;;;9.05;6.15;;;1.80;1.00;;;;;;5045470;28;20020;-82
2022/04/17 04:07:36;;;;;;;9.93;6.25;;;1.70;1.00;;;;;;5055261;28;20022;-81
2022/04/17 04:10:07;;;;;;;8.80;5.97;;;1.60;1.00;;;;;;5043499;28;20029;-82
2022/04/17 04:12:34;;;;;;;10.13;6.50;;;1.60;1.00;;;;;;5050228;28;20040;-81
2022/04/17 04:15:00;;;;;;;12.35;6.95;;;1.70;1.00;;;;;;5054088;28;20017;-82
2022/04/17 04:17:25;;;;;;;10.45;7.57;;;1.60;1.00;;;;;;5052053;28;20033;-82
2022/04/17 04:19:51;;;;;;;15.40;7.43;;;1.50;1.00;;;;;;5047075;28;20385;-82
2022/04/17 04:22:17;;;;;;;9.95;7.07;;;1.50;1.00;;;;;;5045799;28;20657;-82
2022/04/17 04:24:42;;;;;;;9.73;6.47;;;1.60;1.00;;;;;;5044387;28;20022;-82
2022/04/17 04:29:52;;;;;;;16.20;7.20;;;1.30;1.00;;;;;;5046650;28;20085;-83
2022/04/17 04:32:21;;;;;;;10.60;6.95;;;1.50;1.00;;;;;;5050397;28;20030;-82
2022/04/17 04:34:47;;;;;;;11.25;7.00;;;1.60;1.00;;;;;;5051812;28;20021;-81
2022/04/17 04:37:13;;;;;;;11.57;7.38;;;1.80;1.00;;;;;;5058348;28;20052;-81
2022/04/17 04:39:39;;;;;;;12.07;7.88;;;1.60;1.00;;;;;;5057657;28;20014;-81
2022/04/17 04:42:05;;;;;;;13.68;7.25;;;1.70;1.00;;;;;;5058273;28;20032;-80
2022/04/17 04:44:30;;;;;;;8.45;6.22;;;1.50;1.00;;;;;;5058233;28;20040;-80
2022/04/17 04:46:56;;;;;;;10.40;7.07;;;1.60;1.00;;;;;;5058181;28;20044;-81
2022/04/17 04:49:31;;;;;;;10.45;7.00;;;1.60;1.00;;;;;;5058084;28;20009;-81
2022/04/17 04:51:58;;;;;;;12.40;7.30;;;1.60;1.00;;;;;;5058257;28;20028;-81
2022/04/17 04:54:23;;;;;;;12.15;7.22;;;1.60;1.00;;;;;;5058095;28;20013;-81
2022/04/17 04:56:49;;;;;;;11.68;7.47;;;1.50;1.00;;;;;;5057630;28;20013;-81
2022/04/17 04:59:14;;;;;;;13.15;7.35;;;1.60;1.00;;;;;;5048284;28;20030;-80
2022/04/17 05:01:40;;;;;;;9.52;6.80;;;1.60;1.00;;;;;;5048868;28;20094;-80
2022/04/17 05:04:05;;;;;;;10.93;6.97;;;1.80;1.00;;;;;;5055308;28;20028;-80
2022/04/17 05:06:31;;;;;;;11.50;7.38;;;1.80;1.00;;;;;;5057690;28;20029;-80
2022/04/17 05:08:56;;;;;;;10.63;6.50;;;2.00;1.00;;;;;;5055075;28;20029;-80
2022/04/17 05:11:23;;;;;;;14.85;8.13;;;2.10;1.00;;;;;;5053859;28;20154;-80
2022/04/17 05:13:49;;;;;;;11.98;6.97;;;2.10;1.00;;;;;;5056877;28;20081;-80
2022/04/17 05:16:14;;;;;;;11.40;7.20;;;2.20;1.00;;;;;;5053232;28;20052;-80
2022/04/17 05:18:40;;;;;;;9.30;6.30;;;2.30;1.00;;;;;;5050398;28;20052;-80
2022/04/17 05:21:06;;;;;;;10.70;7.50;;;2.30;1.00;;;;;;5056914;28;20024;-80
2022/04/17 05:23:33;;;;;;;14.13;7.75;;;2.40;1.00;;;;;;5057369;28;20009;-81
2022/04/17 05:26:00;;;;;;;9.27;7.28;;;2.30;1.00;;;;;;5057115;28;20037;-81
2022/04/17 05:28:30;;;;;;;13.20;7.53;;;2.40;1.00;;;;;;5053834;28;20044;-81
2022/04/17 05:30:57;;;;;;;10.77;7.68;;;2.40;1.00;;;;;;5040312;28;20024;-81
2022/04/17 05:33:23;;;;;;;10.52;7.28;;;2.40;1.00;;;;;;5043178;28;20010;-81
2022/04/17 05:35:50;;;;;;;11.95;8.05;;;2.50;1.00;;;;;;5043104;28;20033;-81
2022/04/17 05:38:16;;;;;;;12.68;7.80;;;2.60;1.00;;;;;;5048128;28;20106;-81
2022/04/17 05:40:43;;;;;;;12.57;7.85;;;6.30;99.90;;;;;;5056864;28;20025;-81
2022/04/17 05:43:10;;;;;;;11.27;7.53;;;7.50;99.90;;;;;;5053244;28;20022;-81
2022/04/17 05:45:36;;;;;;;11.85;7.57;;;5.80;99.90;;;;;;5056937;28;20025;-81
2022/04/17 05:48:04;;;;;;;13.45;8.48;;;4.40;99.90;;;;;;5056865;28;20041;-81
2022/04/17 05:50:30;;;;;;;12.07;7.40;;;3.90;99.90;;;;;;5054028;28;20128;-81
2022/04/17 05:52:56;;;;;;;10.70;7.75;;;3.80;99.90;;;;;;5039173;28;20018;-81
2022/04/17 05:55:21;;;;;;;11.57;7.00;;;3.80;99.90;;;;;;5039420;28;20032;-81
2022/04/17 05:57:48;;;;;;;14.25;8.38;;;3.90;99.90;;;;;;5040905;28;20024;-82
2022/04/17 06:00:16;;;;;;;10.35;7.68;;;3.80;99.90;;;;;;5042629;28;20014;-81
2022/04/17 06:02:43;;;;;;;10.38;7.30;;;3.90;99.90;;;;;;5039653;28;20033;-81
2022/04/17 06:05:09;;;;;;;12.82;7.95;;;4.00;99.90;;;;;;5039385;28;20037;-82
2022/04/17 06:07:35;;;;;;;9.90;7.45;;;4.10;99.90;;;;;;5042861;28;20037;-82
2022/04/17 06:10:05;;;;;;;11.65;7.80;;;4.10;99.90;;;;;;5038397;28;20076;-82
2022/04/17 06:12:31;;;;;;;;;;;4.20;99.90;;;;;;5035634;28;20052;-81
2022/04/17 06:14:56;;;;;;;12.57;8.18;;;4.20;99.90;;;;;;5039994;28;19909;-81
2022/04/17 06:17:22;;;;;;;11.43;8.10;;;4.30;99.90;;;;;;5039228;28;20022;-82
2022/04/17 06:19:47;;;;;;;12.02;7.95;;;4.40;99.90;;;;;;5050496;28;20045;-81
2022/04/17 06:22:13;;;;;;;10.10;7.35;;;4.50;99.90;;;;;;5046042;28;20017;-81
2022/04/17 06:24:39;;;;;;;13.57;8.60;;;4.70;99.90;;;;;;5056475;28;20017;-81
2022/04/17 06:27:05;;;;;;;14.38;9.15;;;4.80;99.90;;;;;;5056489;28;20029;-81
2022/04/17 06:29:31;;;;;;;11.73;8.40;;;5.00;99.90;;;;;;5049794;28;20038;-81
2022/04/17 06:31:57;;;;;;;11.98;7.95;;;5.10;99.90;;;;;;5056463;28;20002;-81
2022/04/17 06:34:23;;;;;;;9.68;7.57;;;5.20;99.90;;;;;;5055195;28;20543;-79
2022/04/17 06:36:48;;;;;;;12.85;8.13;;;5.40;99.90;;;;;;5056137;28;20018;-80
2022/04/17 06:39:14;;;;;;;13.40;8.65;;;5.80;99.90;;;;;;5056743;28;20041;-80
2022/04/17 06:41:40;;;;;;;11.90;7.45;;;9.80;99.90;;;;;;5056457;28;20009;-80
2022/04/17 06:44:05;;;;;;;12.05;7.68;;;14.10;99.90;;;;;;5056032;28;20006;-80
2022/04/17 06:46:32;;;;;;;11.98;7.70;;;15.40;99.90;;;;;;5055591;28;20048;-83
2022/04/17 06:48:58;;;;;;;10.95;7.55;;;15.80;99.90;;;;;;5049401;28;20028;-83
2022/04/17 06:51:24;;;;;;;12.63;7.32;;;18.40;99.90;;;;;;5056716;28;20026;-83
2022/04/17 06:53:50;;;;;;;11.07;7.40;;;18.50;99.90;;;;;;5055884;28;20028;-81
2022/04/17 06:56:18;;;;;;;11.15;7.13;;;21.90;99.90;;;;;;5055915;28;20073;-82
2022/04/17 06:58:45;;;;;;;9.68;6.25;;;22.00;99.90;;;;;;5055033;28;20032;-82
2022/04/17 07:01:10;;;;;;;8.63;6.32;;;22.90;99.90;;;;;;5057153;28;20030;-83
2022/04/17 07:03:36;;;;;;;8.52;6.72;;;21.60;99.90;;;;;;5060287;28;20018;-83
2022/04/17 07:06:01;;;;;;;9.60;7.00;;;23.90;99.90;;;;;;5060372;28;20056;-83
2022/04/17 07:08:28;;;;;;;9.65;7.05;;;22.40;99.90;;;;;;5060263;28;20071;-83
2022/04/17 07:10:54;;;;;;;9.30;6.90;;;25.60;99.90;;;;;;5059121;28;20089;-83
2022/04/17 07:13:21;;;;;;;10.98;7.03;;;26.00;99.90;;;;;;5058983;28;20021;-83
2022/04/17 07:15:48;;;;;;;10.38;6.97;;;24.20;99.90;;;;;;5058750;28;20042;-83
2022/04/17 07:18:14;;;;;;;7.75;6.88;;;25.60;99.90;;;;;;5058783;28;20053;-85
2022/04/17 07:20:39;;;;;;;8.48;7.32;;;25.30;99.90;;;;;;5056730;28;20028;-83
2022/04/17 07:23:08;;;;;;;8.82;7.03;;;26.00;99.90;;;;;;5053316;28;20009;-82
2022/04/17 07:25:34;;;;;;;7.70;6.90;;;26.10;99.90;;;;;;5052171;28;20044;-83
2022/04/17 07:28:00;;;;;;;9.70;7.45;;;26.10;99.90;;;;;;5051002;28;20013;-84
2022/04/17 07:30:29;;;;;;;8.40;6.85;;;26.60;99.90;;;;;;5048265;28;20044;-84
2022/04/17 07:32:57;;;;;;;7.45;6.45;;;24.90;99.90;;;;;;5050493;28;20029;-84
2022/04/17 07:35:25;;;;;;;9.07;7.22;;;29.20;99.90;;;;;;5051457;28;20033;-85
2022/04/17 07:37:55;;;;;;;8.60;6.90;;;28.40;99.90;;;;;;5048171;28;20026;-84
2022/04/17 07:40:25;;;;;;;8.27;6.30;;;29.60;99.90;;;;;;5045922;28;20022;-84
2022/04/17 07:42:51;;;;;;;8.13;7.28;;;31.90;99.90;;;;;;5044226;28;20046;-83
2022/04/17 07:45:18;;;;;;;8.80;6.63;;;31.70;99.90;;;;;;5046498;28;20034;-84
2022/04/17 07:47:44;;;;;;;10.68;6.50;;;28.60;99.90;;;;;;5046429;28;20045;-84
2022/04/17 07:50:15;;;;;;;7.00;6.30;;;29.00;99.90;;;;;;5055788;28;20018;-85
2022/04/17 07:52:41;;;;;;;8.68;6.32;;;28.50;99.90;;;;;;5046575;28;20081;-85
2022/04/17 07:55:08;;;;;;;8.05;6.15;;;32.80;99.90;;;;;;5052892;28;20029;-85
2022/04/17 07:57:55;;;;;;;9.25;6.32;;;32.50;99.90;;;;;;5047627;28;20044;-85
2022/04/17 08:00:21;;;;;;;7.72;6.22;;;34.30;99.90;;;;;;5056080;28;20017;-84
2022/04/17 08:02:55;;;;;;;7.30;6.15;;;30.10;99.90;;;;;;5059109;28;20027;-85
2022/04/17 08:05:22;;;;;;;6.80;6.10;;;30.90;99.90;;;;;;5058887;28;20035;-85
2022/04/17 08:07:49;;;;;;;6.57;5.85;;;31.50;99.90;;;;;;5058775;28;20077;-85
2022/04/17 08:10:14;;;;;;;7.20;6.28;;;33.40;99.90;;;;;;5058642;28;20014;-85
2022/04/17 08:12:40;;;;;;;7.00;5.72;;;34.50;99.90;;;;;;5056623;28;20025;-85
2022/04/17 08:15:07;;;;;;;6.13;5.53;;;33.70;99.90;;;;;;5055994;28;20045;-84
2022/04/17 08:17:32;;;;;;;5.85;5.25;;;34.80;99.90;;;;;;5056617;28;20045;-84
2022/04/17 08:19:58;;;;;;;6.22;5.53;;;35.80;99.90;;;;;;5058059;28;20093;-85
2022/04/17 08:22:23;;;;;;;6.70;5.18;;;36.10;99.90;;;;;;5058077;28;20022;-85
2022/04/17 08:24:49;;;;;;;6.13;5.53;;;36.00;99.90;;;;;;5057664;28;20076;-85
2022/04/17 08:27:14;;;;;;;6.43;5.60;;;35.80;99.90;;;;;;5058559;28;20021;-85
2022/04/17 08:29:40;;;;;;;7.20;5.63;;;35.50;99.90;;;;;;5058478;28;20053;-85
2022/04/17 08:32:06;;;;;;;6.35;5.40;;;35.40;99.90;;;;;;5058216;28;20133;-84
2022/04/17 08:34:31;;;;;;;7.18;6.00;;;36.90;99.90;;;;;;5057624;28;20056;-85
2022/04/17 08:36:57;;;;;;;6.82;5.88;;;35.80;99.90;;;;;;5058158;28;20034;-85
2022/04/17 08:39:23;;;;;;;7.03;5.97;;;37.30;99.90;;;;;;5058177;28;20080;-84
2022/04/17 08:41:49;;;;;;;6.07;5.47;;;37.70;99.90;;;;;;5058040;28;20014;-85
2022/04/17 08:44:15;;;;;;;6.32;5.35;;;37.50;99.90;;;;;;5048685;28;20017;-86
2022/04/17 08:46:44;;;;;;;7.05;6.20;;;37.10;99.90;;;;;;5057419;28;20032;-85
2022/04/17 08:49:11;;;;;;;6.68;6.07;;;33.50;99.90;;;;;;5056337;28;20032;-84
2022/04/17 08:51:47;;;;;;;7.15;6.45;;;31.50;99.90;;;;;;5056618;28;20014;-84
2022/04/17 08:54:13;;;;;;;6.88;5.70;;;33.20;99.90;;;;;;5057540;28;20028;-84
2022/04/17 08:56:39;;;;;;;6.47;5.88;;;35.50;99.90;;;;;;5057486;28;20033;-85
2022/04/17 08:59:05;;;;;;;6.10;5.55;;;36.40;99.90;;;;;;5041996;28;20026;-84
2022/04/17 09:01:36;;;;;;;6.90;5.47;;;37.40;99.90;;;;;;5030836;28;20025;-85
2022/04/17 09:04:02;;;;;;;9.70;5.63;;;35.30;99.90;;;;;;5032897;28;20037;-83
2022/04/17 09:06:29;;;;;;;6.60;5.63;;;36.40;99.90;;;;;;5038802;28;20037;-83
2022/04/17 09:08:59;;;;;;;7.43;5.93;;;36.30;99.90;;;;;;5040900;28;20049;-83
2022/04/17 09:11:25;;;;;;;;;;;35.60;99.90;;;;;;5042149;28;20033;-84
2022/04/17 09:13:54;;;;;;;6.35;5.70;;;34.40;99.90;;;;;;5039097;28;19913;-83
2022/04/17 09:16:26;;;;;;;6.80;5.93;;;36.30;99.90;;;;;;5040083;28;20041;-84
2022/04/17 09:18:51;;;;;;;6.60;5.30;;;36.60;99.90;;;;;;5036294;28;20048;-81
2022/04/17 09:21:32;;;;;;;5.65;5.05;;;35.50;99.90;;;;;;5033908;28;20171;-81
2022/04/17 09:24:18;;;;;;;7.43;5.70;;;36.70;99.90;;;;;;5045887;28;20366;-81
2022/04/17 09:27:03;;;;;;;6.45;5.32;;;35.80;99.90;;;;;;5036581;28;20029;-84
2022/04/17 09:29:32;;;;;;;6.35;5.68;;;36.80;99.90;;;;;;5035911;28;20029;-82
2022/04/17 09:32:05;;;;;;;8.38;5.65;;;36.10;99.90;;;;;;5033256;28;20033;-81
2022/04/17 09:34:52;;;;;;;5.95;5.35;;;38.20;99.90;;;;;;5030358;28;20046;-81
2022/04/17 09:37:26;;;;;;;6.15;5.38;;;34.30;99.90;;;;;;5034369;28;20033;-83
2022/04/17 09:39:52;;;;;;;6.97;5.40;;;34.50;99.90;;;;;;5034165;28;20018;-80
2022/04/17 09:42:22;;;;;;;9.10;5.85;;;34.40;99.90;;;;;;5025029;28;20021;-81
2022/04/17 09:44:54;;;;;;;6.53;5.82;;;31.60;99.90;;;;;;5019566;28;20127;-82
2022/04/17 09:47:22;;;;;;;7.40;5.78;;;35.70;99.90;;;;;;5017758;28;20034;-80
2022/04/17 09:50:02;;;;;;;6.93;5.65;;;34.40;99.90;;;;;;5013217;28;20021;-81
2022/04/17 09:52:32;;;;;;;7.90;5.88;;;31.40;99.90;;;;;;5014747;28;20030;-80
2022/04/17 09:55:03;;;;;;;6.10;5.45;;;32.50;99.90;;;;;;5019089;28;20437;-81
2022/04/17 09:57:34;;;;;;;6.20;5.13;;;34.30;99.90;;;;;;5024715;28;20127;-81
2022/04/17 10:00:15;;;;;;;6.75;5.18;;;29.70;99.90;;;;;;5016429;28;20025;-81
2022/04/17 10:02:47;;;;;;;7.72;6.00;;;33.50;99.90;;;;;;5019855;28;20018;-82
2022/04/17 10:05:15;;;;;;;6.40;5.63;;;30.60;99.90;;;;;;5043994;28;20017;-85
2022/04/17 10:07:42;;;;;;;6.50;5.45;;;26.30;99.90;;;;;;5055823;28;20044;-85
2022/04/17 10:10:11;;;;;;;6.10;5.10;;;27.10;99.90;;;;;;5056700;28;20026;-85
2022/04/17 10:12:39;;;;;;;7.03;5.50;;;26.50;99.90;;;;;;5048373;28;20010;-85
2022/04/17 10:15:07;;;;;;;6.97;5.77;;;25.80;99.90;;;;;;5042256;28;20042;-84
2022/04/17 10:17:38;;;;;;;5.15;4.65;;;27.00;99.90;;;;;;5038371;28;20032;-85
2022/04/17 10:20:09;;;;;;;5.40;4.75;;;27.40;99.90;;;;;;5046296;28;20014;-84
2022/04/17 10:22:37;;;;;;;5.95;5.07;;;28.50;99.90;;;;;;5056419;28;20056;-84
2022/04/17 10:25:05;;;;;;;5.85;5.20;;;32.30;99.90;;;;;;5056098;28;20013;-84
2022/04/17 10:27:36;;;;;;;7.53;5.47;;;33.90;99.90;;;;;;5055564;28;20022;-85
2022/04/17 10:30:10;;;;;;;7.03;5.55;;;28.90;99.90;;;;;;5056261;28;20036;-85
2022/04/17 10:32:41;;;;;;;6.55;5.85;;;28.70;99.90;;;;;;5045279;28;20067;-85
2022/04/17 10:35:28;;;;;;;6.30;5.30;;;27.80;99.90;;;;;;5040461;28;20085;-84
2022/04/17 10:38:23;;;;;;;7.80;4.97;;;27.20;99.90;;;;;;5051801;28;20037;-85
2022/04/17 10:41:02;;;;;;;6.18;5.28;;;26.40;99.90;;;;;;5044411;28;20030;-85
2022/04/17 10:43:53;;;;;;;6.03;5.30;;;27.40;99.90;;;;;;5049405;28;20018;-85
2022/04/17 10:46:21;;;;;;;6.55;4.80;;;31.40;99.90;;;;;;5057177;28;20065;-85
2022/04/17 10:49:00;;;;;;;5.22;4.55;;;31.50;99.90;;;;;;5054001;28;20028;-84
2022/04/17 10:51:30;;;;;;;6.68;5.00;;;31.00;99.90;;;;;;5043226;28;20049;-84
2022/04/17 10:54:03;;;;;;;4.80;3.85;;;25.00;99.90;;;;;;5037234;28;20029;-83
2022/04/17 10:56:34;;;;;;;4.78;4.28;;;26.30;99.90;;;;;;5037828;28;20034;-83
2022/04/17 10:59:02;;;;;;;5.70;4.18;;;27.50;99.90;;;;;;5037469;28;20104;-83
2022/04/17 11:01:43;;;;;;;5.00;4.07;;;27.60;99.90;;;;;;5031830;28;20041;-83
2022/04/17 11:04:23;;;;;;;7.20;4.65;;;27.70;99.90;;;;;;5037373;28;20029;-83
2022/04/17 11:06:53;;;;;;;6.07;4.63;;;26.10;99.90;;;;;;5037440;28;20096;-83
2022/04/17 11:09:24;;;;;;;6.05;5.35;;;22.70;99.90;;;;;;5036147;28;20374;-83
2022/04/17 11:11:51;;;;;;;6.00;4.63;;;21.60;99.90;;;;;;5036944;28;20124;-83
2022/04/17 11:14:21;;;;;;;6.60;4.93;;;22.10;99.90;;;;;;5036832;28;20045;-82
2022/04/17 11:16:53;;;;;;;5.93;4.30;;;20.10;99.90;;;;;;5036882;28;20034;-82
2022/04/17 11:19:22;;;;;;;5.13;4.25;;;20.50;99.90;;;;;;5037491;28;20044;-82
2022/04/17 11:21:51;;;;;;;5.37;4.37;;;18.60;99.90;;;;;;5038822;28;20477;-83
2022/04/17 11:24:17;;;;;;;4.50;3.78;;;18.60;99.90;;;;;;5039416;28;20025;-83
2022/04/17 11:26:52;;;;;;;6.78;4.50;;;19.20;99.90;;;;;;5035674;28;20034;-82
2022/04/17 11:29:43;;;;;;;5.25;4.07;;;18.40;99.90;;;;;;5037054;28;20029;-83
2022/04/17 11:32:18;;;;;;;5.47;4.47;;;18.80;99.90;;;;;;5039434;28;20566;-83
2022/04/17 11:34:52;;;;;;;4.57;4.05;;;18.40;99.90;;;;;;5038267;28;20398;-82
2022/04/17 11:37:29;;;;;;;4.88;3.97;;;18.20;99.90;;;;;;5037971;28;20478;-83
2022/04/17 11:39:57;;;;;;;5.20;4.07;;;18.70;99.90;;;;;;5039977;28;20052;-83
2022/04/17 11:42:28;;;;;;;4.80;4.40;;;18.20;99.90;;;;;;5036753;28;20053;-83
2022/04/17 11:44:59;;;;;;;5.22;4.43;;;18.60;99.90;;;;;;5036358;28;20030;-83
2022/04/17 11:47:25;;;;;;;6.55;4.47;;;18.40;99.90;;;;;;5034857;28;20397;-83
2022/04/17 11:49:51;;;;;;;5.68;4.90;;;17.80;99.90;;;;;;5034176;28;20041;-84
2022/04/17 11:52:18;;;;;;;4.38;3.67;;;18.30;99.90;;;;;;5034803;28;20032;-83
2022/04/17 11:54:46;;;;;;;4.72;3.95;;;18.80;99.90;;;;;;5034323;28;20029;-83
2022/04/17 11:57:12;;;;;;;3.97;3.63;;;18.90;99.90;;;;;;5033361;28;20044;-83
2022/04/17 11:59:55;;;;;;;4.28;3.85;;;18.30;99.90;;;;;;5033475;28;20021;-82
2022/04/17 12:02:25;;;;;;;4.95;4.15;;;18.30;99.90;;;;;;5025875;28;20098;-83
2022/04/17 12:05:12;;;;;;;4.50;3.95;;;18.00;99.90;;;;;;5033183;28;20025;-83
2022/04/17 12:07:38;;;;;;;4.93;4.03;;;18.00;99.90;;;;;;5023844;28;20064;-82
2022/04/17 12:10:03;;;;;;;5.55;4.18;;;17.30;99.90;;;;;;5017169;28;20057;-82
2022/04/17 12:12:34;;;;;;;5.43;4.07;;;18.90;99.90;;;;;;5015854;28;20029;-82
2022/04/17 12:15:03;;;;;;;5.55;4.35;;;19.00;99.90;;;;;;5019857;28;20046;-82
2022/04/17 12:17:30;;;;;;;4.90;4.32;;;18.00;99.90;;;;;;5020115;28;20048;-82
2022/04/17 12:19:55;;;;;;;5.50;4.03;;;17.70;99.90;;;;;;5024827;28;20107;-82
2022/04/17 12:22:21;;;;;;;5.78;4.60;;;19.10;99.90;;;;;;5033000;28;20076;-82
2022/04/17 12:24:46;;;;;;;5.53;4.20;;;18.10;99.90;;;;;;5029789;28;20025;-82
2022/04/17 12:27:19;;;;;;;5.13;3.38;;;18.20;99.90;;;;;;5029298;28;20040;-82
2022/04/17 12:29:58;;;;;;;4.22;3.83;;;18.40;99.90;;;;;;5016215;28;20034;-82
2022/04/17 12:32:26;;;;;;;6.05;4.15;;;18.10;99.90;;;;;;5017445;28;20119;-82
2022/04/17 12:35:04;;;;;;;5.03;4.07;;;18.60;99.90;;;;;;5033585;28;20025;-82
2022/04/17 12:37:33;;;;;;;5.22;4.35;;;19.10;99.90;;;;;;5033260;28;20030;-83
2022/04/17 12:40:12;;;;;;;5.68;3.80;;;18.40;99.90;;;;;;5033113;28;20033;-82
2022/04/17 12:42:39;;;;;;;5.10;4.38;;;18.80;99.90;;;;;;5033012;28;20021;-81
2022/04/17 12:45:05;;;;;;;5.05;4.20;;;18.20;99.90;;;;;;5033765;28;20036;-81
2022/04/17 12:47:31;;;;;;;4.10;3.47;;;18.50;99.90;;;;;;5033896;28;20033;-82
2022/04/17 12:50:07;;;;;;;4.63;3.70;;;18.30;99.90;;;;;;5032821;28;20056;-82
2022/04/17 12:52:34;;;;;;;4.47;3.97;;;18.60;99.90;;;;;;5033193;28;20108;-83
2022/04/17 12:55:12;;;;;;;5.28;3.70;;;18.50;99.90;;;;;;5052207;28;20029;-84
2022/04/17 12:57:38;;;;;;;4.80;3.97;;;18.90;99.90;;;;;;5055963;28;20037;-84
2022/04/17 13:00:14;;;;;;;4.32;3.90;;;18.50;99.90;;;;;;5050271;28;20037;-84
2022/04/17 13:02:40;;;;;;;4.50;3.90;;;18.30;99.90;;;;;;5057626;28;20059;-84
2022/04/17 13:05:06;;;;;;;5.07;4.57;;;18.90;99.90;;;;;;5057896;28;20017;-84
2022/04/17 13:07:34;;;;;;;5.32;4.32;;;18.20;99.90;;;;;;5057939;28;20029;-84
2022/04/17 13:10:03;;;;;;;5.78;4.13;;;18.20;99.90;;;;;;5057742;28;20018;-84
2022/04/17 13:12:43;;;;;;;4.85;4.32;;;18.40;99.90;;;;;;5057700;28;20044;-84
2022/04/17 13:15:10;;;;;;;5.55;4.55;;;18.40;99.90;;;;;;5050751;28;20116;-84